Thuin, Belgium
Current Conditions -  °F | °C
As of 2:20 PM on Saturday 25 Oct 2014 (Local Time) from EBCI Reporting Station
Light Rain Light Rain  
Wind Chill: 12°   Ceiling: 600
Heat Index: 12°   Visibility: 2.5mi
Dew Point: 12°   Wind: 8mph
Humidity: 100%   Direction: 250°WSW
Pressure: 30.12"   Gusts: NA
Location:  50.34°N, 4.29°E
Report Text: EBCI 251220Z 25007KT 4000 -RADZ BR SCT004 BKN006 12/12 Q1020 NOSIG
Loading
Personal Weather Stations






























Interactive Weather Map
Tropical Storm Tracking
New forecast layout! Learn more

10-Day Weather Forecast

Advertisements
Track Severe Weather on mobile